sensor_id;sensor_type;location;lat;lon;timestamp;P1;durP1;ratioP1;P2;durP2;ratioP2
84925;SDS011;75187;48.190;16.294;2024-02-14T00:01:05;10.18;;;2.92;;
84925;SDS011;75187;48.190;16.294;2024-02-14T00:03:33;7.53;;;3.20;;
84925;SDS011;75187;48.190;16.294;2024-02-14T00:05:59;5.65;;;2.70;;
84925;SDS011;75187;48.190;16.294;2024-02-14T00:08:24;4.67;;;2.73;;
84925;SDS011;75187;48.190;16.294;2024-02-14T00:10:50;6.03;;;3.13;;
84925;SDS011;75187;48.190;16.294;2024-02-14T00:13:15;4.72;;;2.78;;
84925;SDS011;75187;48.190;16.294;2024-02-14T00:15:43;6.15;;;2.85;;
84925;SDS011;75187;48.190;16.294;2024-02-14T00:18:09;8.00;;;3.65;;
84925;SDS011;75187;48.190;16.294;2024-02-14T00:20:34;5.22;;;3.28;;
84925;SDS011;75187;48.190;16.294;2024-02-14T00:23:00;6.55;;;3.17;;
84925;SDS011;75187;48.190;16.294;2024-02-14T00:25:26;4.93;;;3.10;;
84925;SDS011;75187;48.190;16.294;2024-02-14T00:27:52;5.03;;;2.47;;
84925;SDS011;75187;48.190;16.294;2024-02-14T00:30:19;4.28;;;2.80;;
84925;SDS011;75187;48.190;16.294;2024-02-14T00:32:44;6.72;;;3.00;;
84925;SDS011;75187;48.190;16.294;2024-02-14T00:35:09;3.90;;;2.50;;
84925;SDS011;75187;48.190;16.294;2024-02-14T00:37:35;7.50;;;3.40;;
84925;SDS011;75187;48.190;16.294;2024-02-14T00:40:00;5.73;;;3.40;;
84925;SDS011;75187;48.190;16.294;2024-02-14T00:42:26;7.50;;;3.20;;
84925;SDS011;75187;48.190;16.294;2024-02-14T00:44:52;5.75;;;2.80;;
84925;SDS011;75187;48.190;16.294;2024-02-14T00:47:17;5.95;;;3.20;;
84925;SDS011;75187;48.190;16.294;2024-02-14T00:49:43;8.27;;;3.20;;
84925;SDS011;75187;48.190;16.294;2024-02-14T00:52:08;6.83;;;3.43;;
84925;SDS011;75187;48.190;16.294;2024-02-14T00:54:34;4.97;;;2.92;;
84925;SDS011;75187;48.190;16.294;2024-02-14T00:57:00;5.82;;;3.08;;
84925;SDS011;75187;48.190;16.294;2024-02-14T00:59:25;6.32;;;3.03;;
84925;SDS011;75187;48.190;16.294;2024-02-14T01:01:50;6.50;;;2.90;;
84925;SDS011;75187;48.190;16.294;2024-02-14T01:04:16;4.90;;;2.70;;
84925;SDS011;75187;48.190;16.294;2024-02-14T01:06:42;3.35;;;2.33;;
84925;SDS011;75187;48.190;16.294;2024-02-14T01:09:07;4.17;;;2.87;;
84925;SDS011;75187;48.190;16.294;2024-02-14T01:11:33;5.55;;;3.45;;
84925;SDS011;75187;48.190;16.294;2024-02-14T01:13:59;6.63;;;3.22;;
84925;SDS011;75187;48.190;16.294;2024-02-14T01:16:24;4.27;;;2.60;;
84925;SDS011;75187;48.190;16.294;2024-02-14T01:18:50;5.07;;;2.65;;
84925;SDS011;75187;48.190;16.294;2024-02-14T01:21:16;8.00;;;3.13;;
84925;SDS011;75187;48.190;16.294;2024-02-14T01:23:41;4.93;;;3.40;;
84925;SDS011;75187;48.190;16.294;2024-02-14T01:26:06;4.83;;;3.00;;
84925;SDS011;75187;48.190;16.294;2024-02-14T01:28:32;7.43;;;3.00;;
84925;SDS011;75187;48.190;16.294;2024-02-14T01:30:57;4.57;;;2.97;;
84925;SDS011;75187;48.190;16.294;2024-02-14T01:33:23;5.97;;;2.88;;
84925;SDS011;75187;48.190;16.294;2024-02-14T01:35:48;8.68;;;3.00;;
84925;SDS011;75187;48.190;16.294;2024-02-14T01:38:14;4.65;;;3.15;;
84925;SDS011;75187;48.190;16.294;2024-02-14T01:40:42;4.83;;;2.50;;
84925;SDS011;75187;48.190;16.294;2024-02-14T01:43:09;7.80;;;3.03;;
84925;SDS011;75187;48.190;16.294;2024-02-14T01:45:35;4.68;;;2.65;;
84925;SDS011;75187;48.190;16.294;2024-02-14T01:48:00;4.72;;;2.75;;
84925;SDS011;75187;48.190;16.294;2024-02-14T01:50:27;4.50;;;2.70;;
84925;SDS011;75187;48.190;16.294;2024-02-14T01:52:57;3.88;;;2.47;;
84925;SDS011;75187;48.190;16.294;2024-02-14T01:55:24;3.10;;;2.50;;
84925;SDS011;75187;48.190;16.294;2024-02-14T01:57:51;4.90;;;2.90;;
84925;SDS011;75187;48.190;16.294;2024-02-14T02:00:17;6.63;;;2.63;;
84925;SDS011;75187;48.190;16.294;2024-02-14T02:02:43;5.47;;;2.80;;
84925;SDS011;75187;48.190;16.294;2024-02-14T02:05:08;4.93;;;2.60;;
84925;SDS011;75187;48.190;16.294;2024-02-14T02:07:34;5.28;;;2.30;;
84925;SDS011;75187;48.190;16.294;2024-02-14T02:10:01;3.67;;;2.33;;
84925;SDS011;75187;48.190;16.294;2024-02-14T02:12:27;5.88;;;2.60;;
84925;SDS011;75187;48.190;16.294;2024-02-14T02:14:53;4.45;;;2.35;;
84925;SDS011;75187;48.190;16.294;2024-02-14T02:17:19;3.40;;;2.30;;
84925;SDS011;75187;48.190;16.294;2024-02-14T02:19:44;3.95;;;2.28;;
84925;SDS011;75187;48.190;16.294;2024-02-14T02:22:09;4.33;;;2.40;;
84925;SDS011;75187;48.190;16.294;2024-02-14T02:24:35;2.72;;;2.03;;
84925;SDS011;75187;48.190;16.294;2024-02-14T02:27:00;4.07;;;2.55;;
84925;SDS011;75187;48.190;16.294;2024-02-14T02:29:26;5.07;;;2.80;;
84925;SDS011;75187;48.190;16.294;2024-02-14T02:31:52;5.15;;;2.65;;
84925;SDS011;75187;48.190;16.294;2024-02-14T02:34:17;4.72;;;2.25;;
84925;SDS011;75187;48.190;16.294;2024-02-14T02:36:43;4.10;;;2.30;;
84925;SDS011;75187;48.190;16.294;2024-02-14T02:39:11;5.45;;;2.47;;
84925;SDS011;75187;48.190;16.294;2024-02-14T02:41:37;2.88;;;2.28;;
84925;SDS011;75187;48.190;16.294;2024-02-14T02:44:02;4.53;;;2.40;;
84925;SDS011;75187;48.190;16.294;2024-02-14T02:46:30;3.47;;;2.10;;
84925;SDS011;75187;48.190;16.294;2024-02-14T02:48:55;3.93;;;2.20;;
84925;SDS011;75187;48.190;16.294;2024-02-14T02:51:22;3.88;;;2.28;;
84925;SDS011;75187;48.190;16.294;2024-02-14T02:53:47;3.78;;;2.22;;
84925;SDS011;75187;48.190;16.294;2024-02-14T02:56:12;7.23;;;2.70;;
84925;SDS011;75187;48.190;16.294;2024-02-14T02:58:40;4.55;;;2.30;;
84925;SDS011;75187;48.190;16.294;2024-02-14T03:01:08;4.85;;;3.00;;
84925;SDS011;75187;48.190;16.294;2024-02-14T03:03:34;4.25;;;2.40;;
84925;SDS011;75187;48.190;16.294;2024-02-14T03:06:01;4.05;;;2.42;;
84925;SDS011;75187;48.190;16.294;2024-02-14T03:08:28;4.47;;;2.45;;
84925;SDS011;75187;48.190;16.294;2024-02-14T03:10:55;4.03;;;2.40;;
84925;SDS011;75187;48.190;16.294;2024-02-14T03:13:24;5.20;;;2.35;;
84925;SDS011;75187;48.190;16.294;2024-02-14T03:15:49;4.90;;;2.63;;
84925;SDS011;75187;48.190;16.294;2024-02-14T03:18:15;5.53;;;2.90;;
84925;SDS011;75187;48.190;16.294;2024-02-14T03:20:40;4.33;;;2.30;;
84925;SDS011;75187;48.190;16.294;2024-02-14T03:23:06;5.80;;;2.60;;
84925;SDS011;75187;48.190;16.294;2024-02-14T03:25:31;8.98;;;2.65;;
84925;SDS011;75187;48.190;16.294;2024-02-14T03:27:56;7.13;;;2.30;;
84925;SDS011;75187;48.190;16.294;2024-02-14T03:30:23;5.70;;;2.53;;
84925;SDS011;75187;48.190;16.294;2024-02-14T03:32:49;3.00;;;2.33;;
84925;SDS011;75187;48.190;16.294;2024-02-14T03:35:15;6.10;;;2.70;;
84925;SDS011;75187;48.190;16.294;2024-02-14T03:37:41;4.28;;;2.20;;
84925;SDS011;75187;48.190;16.294;2024-02-14T03:40:07;5.95;;;2.42;;
84925;SDS011;75187;48.190;16.294;2024-02-14T03:42:34;3.90;;;2.38;;
84925;SDS011;75187;48.190;16.294;2024-02-14T03:45:00;2.40;;;2.05;;
84925;SDS011;75187;48.190;16.294;2024-02-14T03:47:31;5.00;;;2.50;;
84925;SDS011;75187;48.190;16.294;2024-02-14T03:49:57;5.13;;;2.60;;
84925;SDS011;75187;48.190;16.294;2024-02-14T03:52:23;4.75;;;2.65;;
84925;SDS011;75187;48.190;16.294;2024-02-14T03:54:48;3.92;;;2.72;;
84925;SDS011;75187;48.190;16.294;2024-02-14T03:57:14;3.22;;;2.28;;
84925;SDS011;75187;48.190;16.294;2024-02-14T03:59:39;5.43;;;2.33;;
84925;SDS011;75187;48.190;16.294;2024-02-14T04:02:05;4.88;;;2.60;;
84925;SDS011;75187;48.190;16.294;2024-02-14T04:04:34;4.32;;;2.40;;
84925;SDS011;75187;48.190;16.294;2024-02-14T04:07:02;4.93;;;2.30;;
84925;SDS011;75187;48.190;16.294;2024-02-14T04:09:28;3.92;;;2.20;;
84925;SDS011;75187;48.190;16.294;2024-02-14T04:11:53;4.13;;;2.10;;
84925;SDS011;75187;48.190;16.294;2024-02-14T04:14:18;6.23;;;2.47;;
84925;SDS011;75187;48.190;16.294;2024-02-14T04:16:44;4.07;;;2.27;;
84925;SDS011;75187;48.190;16.294;2024-02-14T04:19:09;2.90;;;2.40;;
84925;SDS011;75187;48.190;16.294;2024-02-14T04:21:36;6.97;;;2.85;;
84925;SDS011;75187;48.190;16.294;2024-02-14T04:24:02;6.40;;;2.40;;
84925;SDS011;75187;48.190;16.294;2024-02-14T04:26:28;4.25;;;2.33;;
84925;SDS011;75187;48.190;16.294;2024-02-14T04:28:54;3.92;;;2.50;;
84925;SDS011;75187;48.190;16.294;2024-02-14T04:31:19;5.43;;;2.72;;
84925;SDS011;75187;48.190;16.294;2024-02-14T04:33:45;4.38;;;2.70;;
84925;SDS011;75187;48.190;16.294;2024-02-14T04:36:15;4.35;;;3.00;;
84925;SDS011;75187;48.190;16.294;2024-02-14T04:38:41;6.05;;;2.80;;
84925;SDS011;75187;48.190;16.294;2024-02-14T04:41:06;4.25;;;2.42;;
84925;SDS011;75187;48.190;16.294;2024-02-14T04:43:31;6.38;;;3.22;;
84925;SDS011;75187;48.190;16.294;2024-02-14T04:45:57;5.20;;;2.90;;
84925;SDS011;75187;48.190;16.294;2024-02-14T04:48:23;6.10;;;2.65;;
84925;SDS011;75187;48.190;16.294;2024-02-14T04:50:48;5.90;;;2.90;;
84925;SDS011;75187;48.190;16.294;2024-02-14T04:53:14;5.18;;;2.72;;
84925;SDS011;75187;48.190;16.294;2024-02-14T04:55:41;4.63;;;2.53;;
84925;SDS011;75187;48.190;16.294;2024-02-14T04:58:06;5.68;;;2.53;;
84925;SDS011;75187;48.190;16.294;2024-02-14T05:00:32;4.65;;;2.58;;
84925;SDS011;75187;48.190;16.294;2024-02-14T05:02:58;5.45;;;2.60;;
84925;SDS011;75187;48.190;16.294;2024-02-14T05:05:23;4.63;;;2.65;;
84925;SDS011;75187;48.190;16.294;2024-02-14T05:07:48;4.20;;;2.50;;
84925;SDS011;75187;48.190;16.294;2024-02-14T05:10:14;4.38;;;2.85;;
84925;SDS011;75187;48.190;16.294;2024-02-14T05:12:40;4.45;;;2.95;;
84925;SDS011;75187;48.190;16.294;2024-02-14T05:15:06;4.55;;;3.33;;
84925;SDS011;75187;48.190;16.294;2024-02-14T05:17:32;4.15;;;2.72;;
84925;SDS011;75187;48.190;16.294;2024-02-14T05:19:57;4.13;;;2.80;;
84925;SDS011;75187;48.190;16.294;2024-02-14T05:22:22;6.13;;;2.78;;
84925;SDS011;75187;48.190;16.294;2024-02-14T05:24:48;3.58;;;3.10;;
84925;SDS011;75187;48.190;16.294;2024-02-14T05:27:13;4.38;;;2.78;;
84925;SDS011;75187;48.190;16.294;2024-02-14T05:29:38;5.57;;;2.67;;
84925;SDS011;75187;48.190;16.294;2024-02-14T05:32:04;4.65;;;2.72;;
84925;SDS011;75187;48.190;16.294;2024-02-14T05:34:30;8.85;;;2.97;;
84925;SDS011;75187;48.190;16.294;2024-02-14T05:36:55;6.03;;;2.80;;
84925;SDS011;75187;48.190;16.294;2024-02-14T05:39:21;5.40;;;3.10;;
84925;SDS011;75187;48.190;16.294;2024-02-14T05:41:47;4.28;;;2.78;;
84925;SDS011;75187;48.190;16.294;2024-02-14T05:44:14;4.93;;;2.70;;
84925;SDS011;75187;48.190;16.294;2024-02-14T05:46:39;8.32;;;2.92;;
84925;SDS011;75187;48.190;16.294;2024-02-14T05:49:04;5.10;;;2.92;;
84925;SDS011;75187;48.190;16.294;2024-02-14T05:51:31;5.60;;;3.40;;
84925;SDS011;75187;48.190;16.294;2024-02-14T05:53:56;6.25;;;3.03;;
84925;SDS011;75187;48.190;16.294;2024-02-14T05:56:22;4.53;;;3.28;;
84925;SDS011;75187;48.190;16.294;2024-02-14T05:58:47;4.90;;;2.58;;
84925;SDS011;75187;48.190;16.294;2024-02-14T06:01:13;5.00;;;2.90;;
84925;SDS011;75187;48.190;16.294;2024-02-14T06:03:38;4.72;;;2.50;;
84925;SDS011;75187;48.190;16.294;2024-02-14T06:06:06;5.40;;;3.08;;
84925;SDS011;75187;48.190;16.294;2024-02-14T06:08:31;6.60;;;2.83;;
84925;SDS011;75187;48.190;16.294;2024-02-14T06:10:57;6.20;;;3.53;;
84925;SDS011;75187;48.190;16.294;2024-02-14T06:13:22;9.73;;;3.33;;
84925;SDS011;75187;48.190;16.294;2024-02-14T06:15:47;6.22;;;2.75;;
84925;SDS011;75187;48.190;16.294;2024-02-14T06:18:13;5.78;;;2.92;;
84925;SDS011;75187;48.190;16.294;2024-02-14T06:20:38;5.65;;;3.05;;
84925;SDS011;75187;48.190;16.294;2024-02-14T06:23:04;7.18;;;3.00;;
84925;SDS011;75187;48.190;16.294;2024-02-14T06:25:29;5.97;;;3.00;;
84925;SDS011;75187;48.190;16.294;2024-02-14T06:27:55;5.00;;;3.33;;
84925;SDS011;75187;48.190;16.294;2024-02-14T06:30:20;8.63;;;3.97;;
84925;SDS011;75187;48.190;16.294;2024-02-14T06:32:45;5.10;;;3.30;;
84925;SDS011;75187;48.190;16.294;2024-02-14T06:35:11;7.32;;;3.10;;
84925;SDS011;75187;48.190;16.294;2024-02-14T06:37:36;5.57;;;2.92;;
84925;SDS011;75187;48.190;16.294;2024-02-14T06:40:02;6.28;;;2.95;;
84925;SDS011;75187;48.190;16.294;2024-02-14T06:42:27;8.82;;;3.17;;
84925;SDS011;75187;48.190;16.294;2024-02-14T06:44:53;9.77;;;3.28;;
84925;SDS011;75187;48.190;16.294;2024-02-14T06:47:18;7.17;;;3.03;;
84925;SDS011;75187;48.190;16.294;2024-02-14T06:49:43;9.38;;;3.65;;
84925;SDS011;75187;48.190;16.294;2024-02-14T06:52:09;7.10;;;3.55;;
84925;SDS011;75187;48.190;16.294;2024-02-14T06:54:34;6.47;;;3.50;;
84925;SDS011;75187;48.190;16.294;2024-02-14T06:57:00;7.68;;;3.47;;
84925;SDS011;75187;48.190;16.294;2024-02-14T06:59:25;10.07;;;3.78;;
84925;SDS011;75187;48.190;16.294;2024-02-14T07:01:51;7.07;;;3.88;;
84925;SDS011;75187;48.190;16.294;2024-02-14T07:04:19;5.45;;;3.20;;
84925;SDS011;75187;48.190;16.294;2024-02-14T07:06:50;4.30;;;3.42;;
84925;SDS011;75187;48.190;16.294;2024-02-14T07:09:16;8.75;;;3.70;;
84925;SDS011;75187;48.190;16.294;2024-02-14T07:11:42;8.10;;;4.28;;
84925;SDS011;75187;48.190;16.294;2024-02-14T07:14:07;14.27;;;5.38;;
84925;SDS011;75187;48.190;16.294;2024-02-14T07:16:33;7.38;;;4.30;;
84925;SDS011;75187;48.190;16.294;2024-02-14T07:18:58;8.90;;;4.15;;
84925;SDS011;75187;48.190;16.294;2024-02-14T07:21:23;12.53;;;4.93;;
84925;SDS011;75187;48.190;16.294;2024-02-14T07:23:49;10.25;;;4.60;;
84925;SDS011;75187;48.190;16.294;2024-02-14T07:26:15;6.05;;;3.92;;
84925;SDS011;75187;48.190;16.294;2024-02-14T07:28:40;7.82;;;3.97;;
84925;SDS011;75187;48.190;16.294;2024-02-14T07:31:06;12.13;;;4.60;;
84925;SDS011;75187;48.190;16.294;2024-02-14T07:33:31;7.27;;;4.20;;
84925;SDS011;75187;48.190;16.294;2024-02-14T07:35:57;8.85;;;4.22;;
84925;SDS011;75187;48.190;16.294;2024-02-14T07:38:22;7.88;;;4.53;;
84925;SDS011;75187;48.190;16.294;2024-02-14T07:40:48;7.38;;;4.55;;
84925;SDS011;75187;48.190;16.294;2024-02-14T07:43:13;9.38;;;4.55;;
84925;SDS011;75187;48.190;16.294;2024-02-14T07:45:39;6.45;;;4.43;;
84925;SDS011;75187;48.190;16.294;2024-02-14T07:48:04;7.68;;;4.22;;
84925;SDS011;75187;48.190;16.294;2024-02-14T07:50:31;6.65;;;4.57;;
84925;SDS011;75187;48.190;16.294;2024-02-14T07:52:57;7.82;;;5.20;;
84925;SDS011;75187;48.190;16.294;2024-02-14T07:55:23;8.10;;;4.80;;
84925;SDS011;75187;48.190;16.294;2024-02-14T07:57:49;10.55;;;5.53;;
84925;SDS011;75187;48.190;16.294;2024-02-14T08:00:14;7.15;;;4.45;;
84925;SDS011;75187;48.190;16.294;2024-02-14T08:02:47;7.57;;;4.70;;
84925;SDS011;75187;48.190;16.294;2024-02-14T08:05:16;7.00;;;4.50;;
84925;SDS011;75187;48.190;16.294;2024-02-14T08:07:41;6.82;;;3.83;;
84925;SDS011;75187;48.190;16.294;2024-02-14T08:10:07;7.75;;;4.45;;
84925;SDS011;75187;48.190;16.294;2024-02-14T08:12:32;7.30;;;3.00;;
84925;SDS011;75187;48.190;16.294;2024-02-14T08:14:58;5.93;;;4.03;;
84925;SDS011;75187;48.190;16.294;2024-02-14T08:17:28;10.98;;;4.47;;
84925;SDS011;75187;48.190;16.294;2024-02-14T08:19:54;8.77;;;4.05;;
84925;SDS011;75187;48.190;16.294;2024-02-14T08:22:19;7.80;;;4.00;;
84925;SDS011;75187;48.190;16.294;2024-02-14T08:24:45;6.60;;;3.70;;
84925;SDS011;75187;48.190;16.294;2024-02-14T08:27:11;7.03;;;4.68;;
84925;SDS011;75187;48.190;16.294;2024-02-14T08:29:36;9.02;;;4.80;;
84925;SDS011;75187;48.190;16.294;2024-02-14T08:32:02;7.63;;;4.10;;
84925;SDS011;75187;48.190;16.294;2024-02-14T08:34:28;22.25;;;11.48;;
84925;SDS011;75187;48.190;16.294;2024-02-14T08:36:54;15.00;;;6.72;;
84925;SDS011;75187;48.190;16.294;2024-02-14T08:39:19;12.18;;;7.13;;
84925;SDS011;75187;48.190;16.294;2024-02-14T08:41:45;11.52;;;6.35;;
84925;SDS011;75187;48.190;16.294;2024-02-14T08:44:12;9.43;;;4.28;;
84925;SDS011;75187;48.190;16.294;2024-02-14T08:46:38;7.43;;;3.83;;
84925;SDS011;75187;48.190;16.294;2024-02-14T08:49:04;7.25;;;3.78;;
84925;SDS011;75187;48.190;16.294;2024-02-14T08:51:34;7.40;;;3.72;;
84925;SDS011;75187;48.190;16.294;2024-02-14T08:54:00;5.43;;;2.97;;
84925;SDS011;75187;48.190;16.294;2024-02-14T08:58:57;7.03;;;3.63;;
84925;SDS011;75187;48.190;16.294;2024-02-14T09:01:23;11.07;;;3.97;;
84925;SDS011;75187;48.190;16.294;2024-02-14T09:03:48;9.20;;;4.60;;
84925;SDS011;75187;48.190;16.294;2024-02-14T09:06:14;5.47;;;3.42;;
84925;SDS011;75187;48.190;16.294;2024-02-14T09:08:43;8.85;;;4.20;;
84925;SDS011;75187;48.190;16.294;2024-02-14T09:11:08;5.45;;;3.58;;
84925;SDS011;75187;48.190;16.294;2024-02-14T09:13:34;6.00;;;3.80;;
84925;SDS011;75187;48.190;16.294;2024-02-14T09:15:59;6.32;;;2.95;;
84925;SDS011;75187;48.190;16.294;2024-02-14T09:18:25;10.63;;;6.22;;
84925;SDS011;75187;48.190;16.294;2024-02-14T09:20:50;9.45;;;3.90;;
84925;SDS011;75187;48.190;16.294;2024-02-14T09:23:17;11.48;;;5.60;;
84925;SDS011;75187;48.190;16.294;2024-02-14T09:25:45;5.45;;;3.38;;
84925;SDS011;75187;48.190;16.294;2024-02-14T09:28:12;5.40;;;3.22;;
84925;SDS011;75187;48.190;16.294;2024-02-14T09:30:39;5.95;;;3.80;;
84925;SDS011;75187;48.190;16.294;2024-02-14T09:33:04;7.53;;;3.13;;
84925;SDS011;75187;48.190;16.294;2024-02-14T09:35:30;6.25;;;3.22;;
84925;SDS011;75187;48.190;16.294;2024-02-14T09:37:55;8.95;;;4.60;;
84925;SDS011;75187;48.190;16.294;2024-02-14T09:40:21;10.10;;;4.80;;
84925;SDS011;75187;48.190;16.294;2024-02-14T09:42:53;6.95;;;3.88;;
84925;SDS011;75187;48.190;16.294;2024-02-14T09:45:20;7.70;;;3.67;;
84925;SDS011;75187;48.190;16.294;2024-02-14T09:47:49;8.02;;;3.53;;
84925;SDS011;75187;48.190;16.294;2024-02-14T09:50:14;6.93;;;3.50;;
84925;SDS011;75187;48.190;16.294;2024-02-14T09:52:41;7.57;;;3.33;;
84925;SDS011;75187;48.190;16.294;2024-02-14T09:55:07;6.20;;;3.10;;
84925;SDS011;75187;48.190;16.294;2024-02-14T09:57:34;9.00;;;3.50;;
84925;SDS011;75187;48.190;16.294;2024-02-14T10:00:01;7.60;;;4.43;;
84925;SDS011;75187;48.190;16.294;2024-02-14T10:02:30;7.53;;;4.28;;
84925;SDS011;75187;48.190;16.294;2024-02-14T10:04:55;9.60;;;4.90;;
84925;SDS011;75187;48.190;16.294;2024-02-14T10:07:20;9.20;;;4.68;;
84925;SDS011;75187;48.190;16.294;2024-02-14T10:09:46;12.23;;;5.68;;
84925;SDS011;75187;48.190;16.294;2024-02-14T10:12:12;8.02;;;5.20;;
84925;SDS011;75187;48.190;16.294;2024-02-14T10:14:37;7.93;;;4.20;;
84925;SDS011;75187;48.190;16.294;2024-02-14T10:17:06;7.72;;;4.82;;
84925;SDS011;75187;48.190;16.294;2024-02-14T10:19:34;7.28;;;3.90;;
84925;SDS011;75187;48.190;16.294;2024-02-14T10:22:00;9.80;;;3.40;;
84925;SDS011;75187;48.190;16.294;2024-02-14T10:24:28;5.07;;;3.08;;
84925;SDS011;75187;48.190;16.294;2024-02-14T10:26:55;5.30;;;3.42;;
84925;SDS011;75187;48.190;16.294;2024-02-14T10:29:22;5.50;;;3.88;;
84925;SDS011;75187;48.190;16.294;2024-02-14T10:31:48;5.93;;;4.18;;
84925;SDS011;75187;48.190;16.294;2024-02-14T10:34:14;9.10;;;4.30;;
84925;SDS011;75187;48.190;16.294;2024-02-14T10:36:39;6.97;;;4.00;;
84925;SDS011;75187;48.190;16.294;2024-02-14T10:39:09;8.48;;;3.47;;
84925;SDS011;75187;48.190;16.294;2024-02-14T10:41:35;6.00;;;3.08;;
84925;SDS011;75187;48.190;16.294;2024-02-14T10:44:02;5.18;;;3.20;;
84925;SDS011;75187;48.190;16.294;2024-02-14T10:46:29;6.50;;;3.38;;
84925;SDS011;75187;48.190;16.294;2024-02-14T10:48:58;4.63;;;2.80;;
84925;SDS011;75187;48.190;16.294;2024-02-14T10:51:30;4.80;;;2.65;;
84925;SDS011;75187;48.190;16.294;2024-02-14T10:53:58;4.85;;;2.30;;
84925;SDS011;75187;48.190;16.294;2024-02-14T10:56:26;3.10;;;1.98;;
84925;SDS011;75187;48.190;16.294;2024-02-14T10:58:54;4.55;;;2.33;;
84925;SDS011;75187;48.190;16.294;2024-02-14T11:01:25;3.85;;;1.75;;
84925;SDS011;75187;48.190;16.294;2024-02-14T11:03:53;5.47;;;2.47;;
84925;SDS011;75187;48.190;16.294;2024-02-14T11:06:20;3.28;;;1.70;;
84925;SDS011;75187;48.190;16.294;2024-02-14T11:08:58;4.63;;;1.90;;
84925;SDS011;75187;48.190;16.294;2024-02-14T11:11:28;3.38;;;1.77;;
84925;SDS011;75187;48.190;16.294;2024-02-14T11:13:55;4.63;;;2.25;;
84925;SDS011;75187;48.190;16.294;2024-02-14T11:16:27;5.22;;;1.75;;
84925;SDS011;75187;48.190;16.294;2024-02-14T11:18:53;3.22;;;1.77;;
84925;SDS011;75187;48.190;16.294;2024-02-14T11:21:31;5.78;;;1.85;;
84925;SDS011;75187;48.190;16.294;2024-02-14T11:23:56;5.05;;;2.67;;
84925;SDS011;75187;48.190;16.294;2024-02-14T11:26:24;6.18;;;2.60;;
84925;SDS011;75187;48.190;16.294;2024-02-14T11:28:49;5.25;;;2.25;;
84925;SDS011;75187;48.190;16.294;2024-02-14T11:31:30;5.82;;;2.22;;
84925;SDS011;75187;48.190;16.294;2024-02-14T11:34:02;7.13;;;2.20;;
84925;SDS011;75187;48.190;16.294;2024-02-14T11:36:29;3.00;;;2.00;;
84925;SDS011;75187;48.190;16.294;2024-02-14T11:38:55;7.07;;;1.92;;
84925;SDS011;75187;48.190;16.294;2024-02-14T11:41:20;3.38;;;1.65;;
84925;SDS011;75187;48.190;16.294;2024-02-14T11:43:52;3.70;;;1.90;;
84925;SDS011;75187;48.190;16.294;2024-02-14T11:46:17;5.07;;;2.10;;
84925;SDS011;75187;48.190;16.294;2024-02-14T11:48:43;9.05;;;3.95;;
84925;SDS011;75187;48.190;16.294;2024-02-14T11:51:11;4.88;;;2.00;;
84925;SDS011;75187;48.190;16.294;2024-02-14T11:53:36;5.07;;;1.10;;
84925;SDS011;75187;48.190;16.294;2024-02-14T11:56:02;4.85;;;1.48;;
84925;SDS011;75187;48.190;16.294;2024-02-14T11:58:27;1.60;;;1.00;;
84925;SDS011;75187;48.190;16.294;2024-02-14T12:00:53;2.33;;;1.40;;
84925;SDS011;75187;48.190;16.294;2024-02-14T12:03:19;2.28;;;0.90;;
84925;SDS011;75187;48.190;16.294;2024-02-14T12:05:47;2.85;;;1.00;;
84925;SDS011;75187;48.190;16.294;2024-02-14T12:08:15;2.55;;;1.13;;
84925;SDS011;75187;48.190;16.294;2024-02-14T12:10:44;3.20;;;0.85;;
84925;SDS011;75187;48.190;16.294;2024-02-14T12:13:15;2.28;;;1.25;;
84925;SDS011;75187;48.190;16.294;2024-02-14T12:15:45;2.42;;;1.20;;
84925;SDS011;75187;48.190;16.294;2024-02-14T12:18:13;3.88;;;2.00;;
84925;SDS011;75187;48.190;16.294;2024-02-14T12:20:39;2.95;;;1.30;;
84925;SDS011;75187;48.190;16.294;2024-02-14T12:23:04;1.70;;;1.20;;
84925;SDS011;75187;48.190;16.294;2024-02-14T12:25:31;1.95;;;1.10;;
84925;SDS011;75187;48.190;16.294;2024-02-14T12:27:57;4.75;;;2.80;;
84925;SDS011;75187;48.190;16.294;2024-02-14T12:30:23;4.80;;;2.33;;
84925;SDS011;75187;48.190;16.294;2024-02-14T12:33:09;3.28;;;1.50;;
84925;SDS011;75187;48.190;16.294;2024-02-14T12:35:36;3.50;;;1.60;;
84925;SDS011;75187;48.190;16.294;2024-02-14T12:38:06;2.78;;;1.30;;
84925;SDS011;75187;48.190;16.294;2024-02-14T12:40:34;2.90;;;1.40;;
84925;SDS011;75187;48.190;16.294;2024-02-14T12:43:01;6.07;;;1.20;;
84925;SDS011;75187;48.190;16.294;2024-02-14T12:45:26;2.58;;;1.23;;
84925;SDS011;75187;48.190;16.294;2024-02-14T12:47:52;2.88;;;1.20;;
84925;SDS011;75187;48.190;16.294;2024-02-14T12:50:18;2.97;;;1.23;;
84925;SDS011;75187;48.190;16.294;2024-02-14T12:52:45;2.83;;;1.30;;
84925;SDS011;75187;48.190;16.294;2024-02-14T12:55:11;4.13;;;1.70;;
84925;SDS011;75187;48.190;16.294;2024-02-14T12:57:36;2.38;;;1.30;;
84925;SDS011;75187;48.190;16.294;2024-02-14T13:00:02;2.55;;;1.05;;
84925;SDS011;75187;48.190;16.294;2024-02-14T13:02:33;3.47;;;1.30;;
84925;SDS011;75187;48.190;16.294;2024-02-14T13:04:58;2.05;;;1.13;;
84925;SDS011;75187;48.190;16.294;2024-02-14T13:07:24;2.93;;;1.57;;
84925;SDS011;75187;48.190;16.294;2024-02-14T13:09:49;2.78;;;1.10;;
84925;SDS011;75187;48.190;16.294;2024-02-14T13:12:16;3.53;;;1.50;;
84925;SDS011;75187;48.190;16.294;2024-02-14T13:14:41;2.60;;;1.45;;
84925;SDS011;75187;48.190;16.294;2024-02-14T13:17:07;2.37;;;1.10;;
84925;SDS011;75187;48.190;16.294;2024-02-14T13:19:32;3.75;;;1.48;;
84925;SDS011;75187;48.190;16.294;2024-02-14T13:21:58;2.13;;;1.42;;
84925;SDS011;75187;48.190;16.294;2024-02-14T13:24:23;2.17;;;1.70;;
84925;SDS011;75187;48.190;16.294;2024-02-14T13:26:49;3.08;;;1.38;;
84925;SDS011;75187;48.190;16.294;2024-02-14T13:29:14;3.10;;;1.50;;
84925;SDS011;75187;48.190;16.294;2024-02-14T13:31:42;3.40;;;1.70;;
84925;SDS011;75187;48.190;16.294;2024-02-14T13:34:07;2.67;;;1.40;;
84925;SDS011;75187;48.190;16.294;2024-02-14T13:36:33;4.20;;;1.30;;
84925;SDS011;75187;48.190;16.294;2024-02-14T13:38:58;2.90;;;1.13;;
84925;SDS011;75187;48.190;16.294;2024-02-14T13:41:25;1.85;;;1.00;;
84925;SDS011;75187;48.190;16.294;2024-02-14T13:43:51;2.65;;;1.55;;
84925;SDS011;75187;48.190;16.294;2024-02-14T13:46:16;1.95;;;1.20;;
84925;SDS011;75187;48.190;16.294;2024-02-14T13:48:43;3.95;;;1.65;;
84925;SDS011;75187;48.190;16.294;2024-02-14T13:51:08;2.00;;;1.20;;
84925;SDS011;75187;48.190;16.294;2024-02-14T13:53:34;2.65;;;1.20;;
84925;SDS011;75187;48.190;16.294;2024-02-14T13:56:00;5.00;;;1.33;;
84925;SDS011;75187;48.190;16.294;2024-02-14T13:58:25;5.90;;;1.40;;
84925;SDS011;75187;48.190;16.294;2024-02-14T14:00:51;3.58;;;1.25;;
84925;SDS011;75187;48.190;16.294;2024-02-14T14:03:17;3.05;;;1.38;;
84925;SDS011;75187;48.190;16.294;2024-02-14T14:05:43;2.17;;;1.10;;
84925;SDS011;75187;48.190;16.294;2024-02-14T14:08:08;3.72;;;1.15;;
84925;SDS011;75187;48.190;16.294;2024-02-14T14:10:34;3.00;;;1.50;;
84925;SDS011;75187;48.190;16.294;2024-02-14T14:12:59;5.18;;;1.70;;
84925;SDS011;75187;48.190;16.294;2024-02-14T14:15:24;3.20;;;1.83;;
84925;SDS011;75187;48.190;16.294;2024-02-14T14:17:51;3.10;;;1.30;;
84925;SDS011;75187;48.190;16.294;2024-02-14T14:20:17;4.72;;;1.48;;
84925;SDS011;75187;48.190;16.294;2024-02-14T14:22:43;3.33;;;1.80;;
84925;SDS011;75187;48.190;16.294;2024-02-14T14:25:09;3.15;;;1.42;;
84925;SDS011;75187;48.190;16.294;2024-02-14T14:27:34;1.88;;;1.48;;
84925;SDS011;75187;48.190;16.294;2024-02-14T14:30:00;2.03;;;1.50;;